Time;durP1;ratioP1;P1;durP2;ratioP2;P2;SDS_P1;SDS_P2;PMS_P1;PMS_P2;Temp;Humidity;BMP_temperature;BMP_pressure;BME280_temperature;BME280_humidity;BME280_pressure;Samples;Min_cycle;Max_cycle;Signal;HPM_P1;HPM_P2
2021/04/21 00:00:38;;;;;;;12.55;6.78;;;13.70;60.10;;;;;;4958369;28;20170;-60
2021/04/21 00:03:04;;;;;;;13.55;6.35;;;13.70;60.20;;;;;;4999256;28;20052;-60
2021/04/21 00:05:30;;;;;;;14.15;7.22;;;13.60;60.10;;;;;;4995602;28;20033;-60
2021/04/21 00:07:55;;;;;;;13.50;6.22;;;13.60;60.30;;;;;;4990437;28;20018;-60
2021/04/21 00:10:22;;;;;;;10.27;6.05;;;13.60;60.40;;;;;;4999348;28;20034;-60
2021/04/21 00:12:48;;;;;;;9.88;6.63;;;13.60;60.50;;;;;;4996085;28;20045;-60
2021/04/21 00:15:15;;;;;;;8.15;5.90;;;13.60;60.50;;;;;;4970060;28;20133;-61
2021/04/21 00:17:45;;;;;;;9.23;6.43;;;13.50;60.50;;;;;;4994896;28;20022;-60
2021/04/21 00:20:11;;;;;;;10.25;6.40;;;13.50;60.70;;;;;;4997429;28;20058;-61
2021/04/21 00:22:36;;;;;;;9.30;6.45;;;13.50;60.80;;;;;;4970490;28;20819;-60
2021/04/21 00:25:03;;;;;;;14.02;6.95;;;13.40;60.70;;;;;;4983849;28;20054;-61
2021/04/21 00:27:29;;;;;;;10.07;6.70;;;13.50;60.90;;;;;;4989147;28;20266;-60
2021/04/21 00:29:56;;;;;;;9.95;6.35;;;13.40;60.90;;;;;;4989804;28;20045;-60
2021/04/21 00:32:23;;;;;;;8.93;6.32;;;13.40;61.00;;;;;;4977308;28;20037;-60
2021/04/21 00:34:48;;;;;;;9.07;6.90;;;13.40;61.10;;;;;;4993747;28;20377;-60
2021/04/21 00:37:14;;;;;;;8.30;6.28;;;13.40;61.00;;;;;;4970674;28;20027;-60
2021/04/21 00:39:40;;;;;;;9.50;7.45;;;13.40;61.20;;;;;;4975180;28;20032;-58
2021/04/21 00:42:16;;;;;;;15.45;8.70;;;13.30;61.30;;;;;;4998807;28;20484;-60
2021/04/21 00:45:15;;;;;;;9.43;7.70;;;13.30;61.30;;;;;;4996112;28;20474;-60
2021/04/21 00:48:03;;;;;;;13.02;7.55;;;13.30;61.50;;;;;;4985476;28;20064;-60
2021/04/21 00:50:42;;;;;;;9.77;7.90;;;13.30;61.50;;;;;;4994794;28;20030;-62
2021/04/21 00:53:10;;;;;;;11.57;7.38;;;12.90;61.30;;;;;;4976559;28;20056;-60
2021/04/21 00:55:39;;;;;;;11.15;7.40;;;13.20;61.50;;;;;;4978473;28;20390;-60
2021/04/21 00:58:11;;;;;;;8.82;6.65;;;13.20;61.50;;;;;;4980110;28;20022;-60
2021/04/21 01:00:43;;;;;;;10.05;7.72;;;13.20;61.60;;;;;;4983915;28;20115;-60
2021/04/21 01:03:19;;;;;;;13.52;7.95;;;13.10;61.60;;;;;;4985437;28;20180;-60
2021/04/21 01:05:50;;;;;;;9.77;7.70;;;13.10;61.60;;;;;;4987492;28;20041;-59
2021/04/21 01:08:17;;;;;;;13.43;7.40;;;13.10;61.50;;;;;;4992010;28;21493;-60
2021/04/21 01:11:15;;;;;;;10.55;7.75;;;13.10;61.50;;;;;;4993517;28;20035;-60
2021/04/21 01:13:47;;;;;;;10.13;7.88;;;13.10;61.50;;;;;;4970381;28;20034;-60
2021/04/21 01:16:13;;;;;;;11.52;6.88;;;13.10;61.60;;;;;;4990692;28;20022;-60
2021/04/21 01:18:40;;;;;;;9.40;7.32;;;13.10;61.70;;;;;;4993709;28;20035;-60
2021/04/21 01:21:14;;;;;;;11.25;7.75;;;13.00;61.70;;;;;;4994976;28;20049;-60
2021/04/21 01:23:58;;;;;;;9.23;6.68;;;13.00;61.70;;;;;;4989969;28;20023;-60
2021/04/21 01:26:38;;;;;;;10.93;7.20;;;13.00;61.80;;;;;;4994218;28;20034;-60
2021/04/21 01:29:04;;;;;;;9.20;7.07;;;12.90;61.80;;;;;;4991523;28;20477;-60
2021/04/21 01:31:31;;;;;;;11.88;7.07;;;13.00;61.90;;;;;;4992651;28;20046;-60
2021/04/21 01:33:56;;;;;;;9.75;6.97;;;12.90;62.00;;;;;;4986568;28;20113;-60
2021/04/21 01:36:23;;;;;;;8.50;6.60;;;12.90;62.10;;;;;;4977651;28;20181;-61
2021/04/21 01:38:49;;;;;;;9.15;6.97;;;12.90;62.20;;;;;;4961894;28;20033;-61
2021/04/21 01:41:18;;;;;;;8.43;6.43;;;12.90;62.40;;;;;;4980160;28;20036;-60
2021/04/21 01:44:14;;;;;;;10.00;7.18;;;12.90;62.40;;;;;;4996447;28;20030;-60
2021/04/21 01:46:44;;;;;;;13.13;7.45;;;12.80;62.50;;;;;;4979905;28;20047;-60
2021/04/21 01:49:28;;;;;;;8.50;6.18;;;12.80;62.50;;;;;;4984906;28;20905;-60
2021/04/21 01:52:48;;;;;;;10.80;6.50;;;12.80;62.60;;;;;;4994691;28;20062;-61
2021/04/21 01:55:19;;;;;;;11.20;7.03;;;12.80;62.70;;;;;;4970051;28;20035;-60
2021/04/21 01:58:00;;;;;;;12.82;6.55;;;12.80;62.80;;;;;;4992419;28;20042;-61
2021/04/21 02:00:46;;;;;;;8.65;6.15;;;12.70;62.90;;;;;;4989260;28;20029;-60
2021/04/21 02:03:19;;;;;;;10.10;6.70;;;12.70;63.60;;;;;;4976965;28;20069;-59
2021/04/21 02:06:08;;;;;;;7.20;6.25;;;12.70;63.00;;;;;;4995038;28;20035;-60
2021/04/21 02:09:03;;;;;;;7.95;6.45;;;12.70;63.00;;;;;;5004933;28;20033;-61
2021/04/21 02:11:36;;;;;;;9.00;7.13;;;12.70;63.20;;;;;;4974164;28;20509;-61
2021/04/21 02:14:23;;;;;;;7.95;7.03;;;12.60;63.20;;;;;;4993122;28;20046;-60
2021/04/21 02:17:30;;;;;;;11.27;7.07;;;12.60;63.20;;;;;;4991250;28;20136;-61
2021/04/21 02:20:24;;;;;;;8.50;6.53;;;12.60;63.30;;;;;;4999511;28;20097;-60
2021/04/21 02:22:58;;;;;;;9.60;7.00;;;12.60;63.40;;;;;;4994503;28;20058;-61
2021/04/21 02:25:51;;;;;;;11.57;6.85;;;12.40;63.40;;;;;;4994791;28;20073;-60
2021/04/21 02:28:28;;;;;;;8.27;6.55;;;12.50;63.60;;;;;;4995696;28;20048;-60
2021/04/21 02:31:08;;;;;;;9.35;6.82;;;12.50;63.60;;;;;;4980095;28;20022;-60
2021/04/21 02:33:40;;;;;;;12.43;7.32;;;12.50;63.80;;;;;;4994935;28;20038;-60
2021/04/21 02:36:25;;;;;;;9.50;7.47;;;12.50;63.90;;;;;;4986448;28;20034;-60
2021/04/21 02:39:04;;;;;;;17.55;7.45;;;12.50;64.00;;;;;;4983536;28;20034;-60
2021/04/21 02:41:45;;;;;;;15.10;8.48;;;12.50;64.00;;;;;;4994770;28;20035;-60
2021/04/21 02:44:33;;;;;;;11.57;9.07;;;12.40;64.00;;;;;;5003208;28;20030;-60
2021/04/21 02:47:08;;;;;;;11.25;8.55;;;12.40;64.10;;;;;;4987078;28;20050;-60
2021/04/21 02:49:44;;;;;;;9.65;8.27;;;12.40;64.20;;;;;;4996654;28;20030;-60
2021/04/21 02:52:35;;;;;;;12.02;8.52;;;12.40;64.30;;;;;;5004468;28;20049;-61
2021/04/21 02:55:19;;;;;;;10.00;8.18;;;12.40;64.40;;;;;;4960572;28;20037;-60
2021/04/21 02:57:59;;;;;;;11.40;9.23;;;12.40;64.50;;;;;;4991801;28;20026;-60
2021/04/21 03:00:40;;;;;;;14.02;9.00;;;12.40;64.50;;;;;;4975535;28;20034;-60
2021/04/21 03:03:09;;;;;;;12.40;9.18;;;12.30;64.60;;;;;;4971975;28;20022;-61
2021/04/21 03:05:34;;;;;;;11.93;8.48;;;12.30;64.50;;;;;;4993922;28;20395;-59
2021/04/21 03:08:20;;;;;;;17.00;8.52;;;12.30;64.60;;;;;;4982046;28;20030;-64
2021/04/21 03:11:04;;;;;;;11.85;8.65;;;12.30;64.50;;;;;;4989462;28;20034;-60
2021/04/21 03:13:31;;;;;;;12.27;8.50;;;12.30;64.40;;;;;;4992049;28;20042;-60
2021/04/21 03:15:58;;;;;;;10.65;8.38;;;12.20;64.30;;;;;;4981809;28;20025;-60
2021/04/21 03:18:27;;;;;;;10.68;7.38;;;12.20;64.40;;;;;;4973130;28;20034;-60
2021/04/21 03:21:28;;;;;;;11.77;8.57;;;12.20;64.40;;;;;;5003825;28;20704;-60
2021/04/21 03:23:58;;;;;;;12.13;9.80;;;12.20;64.40;;;;;;4991205;28;20137;-60
2021/04/21 03:26:23;;;;;;;11.93;9.20;;;12.10;64.30;;;;;;4981961;28;20030;-60
2021/04/21 03:28:51;;;;;;;14.18;9.30;;;12.10;64.50;;;;;;4996575;28;20053;-60
2021/04/21 03:31:17;;;;;;;13.40;9.77;;;12.10;64.40;;;;;;4972486;28;20409;-60
2021/04/21 03:33:45;;;;;;;14.45;8.27;;;12.10;64.40;;;;;;4997678;28;20030;-60
2021/04/21 03:36:13;;;;;;;18.15;9.23;;;12.10;64.40;;;;;;4987561;28;20051;-60
2021/04/21 03:38:38;;;;;;;12.48;11.10;;;12.10;64.40;;;;;;5000817;28;20019;-60
2021/04/21 03:41:04;;;;;;;14.57;10.68;;;12.00;64.40;;;;;;4976907;28;20022;-63
2021/04/21 03:43:29;;;;;;;17.00;11.70;;;12.00;64.50;;;;;;4977105;28;20283;-60
2021/04/21 03:45:55;;;;;;;13.98;11.45;;;12.00;64.50;;;;;;4983456;28;20531;-61
2021/04/21 03:48:20;;;;;;;15.10;10.57;;;12.00;64.60;;;;;;5001787;28;20041;-60
2021/04/21 03:50:50;;;;;;;15.25;10.88;;;11.90;64.50;;;;;;5009603;28;20029;-59
2021/04/21 03:53:17;;;;;;;11.80;10.20;;;11.90;64.60;;;;;;5038781;28;20480;-60
2021/04/21 03:55:43;;;;;;;15.10;10.98;;;11.90;64.60;;;;;;4998993;28;20060;-60
2021/04/21 03:58:17;;;;;;;13.00;10.32;;;11.90;64.60;;;;;;5020129;28;20057;-60
2021/04/21 04:00:42;;;;;;;11.82;9.80;;;11.90;64.60;;;;;;5017038;28;20033;-60
2021/04/21 04:03:09;;;;;;;10.90;9.05;;;11.90;64.70;;;;;;5001229;28;20522;-60
2021/04/21 04:05:47;;;;;;;11.93;10.00;;;11.80;64.60;;;;;;5012770;28;20084;-60
2021/04/21 04:08:14;;;;;;;10.70;9.55;;;11.80;64.60;;;;;;5018969;28;20393;-59
2021/04/21 04:10:45;;;;;;;13.15;9.88;;;11.80;64.80;;;;;;4999925;28;20092;-60
2021/04/21 04:13:11;;;;;;;11.80;9.95;;;11.80;64.70;;;;;;5020788;28;20498;-60
2021/04/21 04:15:38;;;;;;;12.43;9.73;;;11.70;64.70;;;;;;5006148;28;20025;-60
2021/04/21 04:18:03;;;;;;;13.52;10.07;;;11.70;64.70;;;;;;5003950;28;20076;-60
2021/04/21 04:20:29;;;;;;;28.83;11.93;;;11.70;64.70;;;;;;5017977;28;20025;-60
2021/04/21 04:22:54;;;;;;;56.88;12.55;;;11.70;64.70;;;;;;5002549;28;20434;-60
2021/04/21 04:25:20;;;;;;;66.43;12.68;;;11.70;64.70;;;;;;5020131;28;20053;-60
2021/04/21 04:27:45;;;;;;;49.88;11.15;;;11.70;64.80;;;;;;5000033;28;20527;-60
2021/04/21 04:30:12;;;;;;;62.30;12.00;;;11.60;64.90;;;;;;5033632;28;20043;-60
2021/04/21 04:32:41;;;;;;;87.50;11.80;;;11.60;64.90;;;;;;5022662;28;20043;-60
2021/04/21 04:35:08;;;;;;;49.83;12.85;;;11.60;64.90;;;;;;5004144;28;20041;-60
2021/04/21 04:37:35;;;;;;;48.55;12.57;;;11.60;64.90;;;;;;5003192;28;20091;-60
2021/04/21 04:40:00;;;;;;;54.75;12.40;;;11.60;65.00;;;;;;5018215;28;20132;-61
2021/04/21 04:42:26;;;;;;;42.92;11.23;;;11.50;65.10;;;;;;5000447;28;20290;-60
2021/04/21 04:44:51;;;;;;;39.47;11.57;;;11.50;65.50;;;;;;5018988;28;20025;-59
2021/04/21 04:47:31;;;;;;;43.53;11.80;;;11.50;65.60;;;;;;5010920;28;20048;-60
2021/04/21 04:50:07;;;;;;;40.60;11.70;;;11.50;65.80;;;;;;5012361;28;20048;-60
2021/04/21 04:52:34;;;;;;;41.15;10.68;;;11.50;65.50;;;;;;5002200;28;20100;-60
2021/04/21 04:55:01;;;;;;;53.20;11.13;;;11.40;65.40;;;;;;4985655;28;20111;-60
2021/04/21 04:57:28;;;;;;;47.72;11.73;;;11.50;65.60;;;;;;5003762;28;20422;-60
2021/04/21 04:59:53;;;;;;;34.42;10.60;;;11.40;65.50;;;;;;5025010;28;20025;-60
2021/04/21 05:02:19;;;;;;;42.47;11.45;;;11.40;65.60;;;;;;5008432;28;20131;-60
2021/04/21 05:04:58;;;;;;;39.00;10.52;;;11.40;65.60;;;;;;5009583;28;20514;-59
2021/04/21 05:07:29;;;;;;;34.22;10.82;;;11.40;65.60;;;;;;5024371;28;20036;-59
2021/04/21 05:09:57;;;;;;;52.53;9.85;;;11.40;65.70;;;;;;5025540;28;20376;-60
2021/04/21 05:12:23;;;;;;;51.08;10.68;;;11.30;66.40;;;;;;5009390;28;20534;-60
2021/04/21 05:14:49;;;;;;;46.50;10.95;;;11.30;65.80;;;;;;4989645;28;20053;-60
2021/04/21 05:17:33;;;;;;;42.47;11.98;;;11.30;66.00;;;;;;5005038;28;20066;-60
2021/04/21 05:19:58;;;;;;;29.75;10.85;;;11.40;65.90;;;;;;5035165;28;20029;-60
2021/04/21 05:22:45;;;;;;;38.45;11.27;;;11.30;66.00;;;;;;5030560;28;20028;-59
2021/04/21 05:25:25;;;;;;;31.48;10.57;;;11.30;66.00;;;;;;5032490;28;20446;-60
2021/04/21 05:28:17;;;;;;;40.28;10.93;;;11.20;66.10;;;;;;5013877;28;20037;-60
2021/04/21 05:31:10;;;;;;;40.65;10.18;;;11.30;66.10;;;;;;5014206;28;20078;-59
2021/04/21 05:33:39;;;;;;;43.08;9.50;;;11.20;66.00;;;;;;5018549;28;20029;-60
2021/04/21 05:36:23;;;;;;;33.67;10.18;;;11.30;66.00;;;;;;5036999;28;20366;-60
2021/04/21 05:39:29;;;;;;;38.10;10.13;;;11.30;66.20;;;;;;5042244;28;20095;-60
2021/04/21 05:42:30;;;;;;;32.93;10.23;;;11.30;66.10;;;;;;5008117;28;20032;-60
2021/04/21 05:45:24;;;;;;;33.35;10.50;;;11.30;66.10;;;;;;5025649;28;20025;-60
2021/04/21 05:48:27;;;;;;;37.72;9.65;;;11.30;66.00;;;;;;5023068;28;20103;-60
2021/04/21 05:51:23;;;;;;;37.22;9.60;;;11.30;66.00;;;;;;5041880;28;20025;-60
2021/04/21 05:54:14;;;;;;;25.30;9.00;;;11.30;66.00;;;;;;5025966;28;20049;-60
2021/04/21 05:56:42;;;;;;;31.15;8.98;;;11.20;66.10;;;;;;5026257;28;20041;-60
2021/04/21 05:59:29;;;;;;;33.25;9.75;;;11.30;66.10;;;;;;5041640;28;20030;-60
2021/04/21 06:01:55;;;;;;;29.38;9.50;;;11.20;66.00;;;;;;5027030;28;20051;-59
2021/04/21 06:04:22;;;;;;;43.42;10.43;;;11.20;66.10;;;;;;4994060;28;20017;-59
2021/04/21 06:06:48;;;;;;;21.10;9.05;;;11.20;66.30;;;;;;5042155;28;20009;-60
2021/04/21 06:09:13;;;;;;;34.53;9.23;;;11.20;66.50;;;;;;5021703;28;20106;-60
2021/04/21 06:11:39;;;;;;;32.17;9.60;;;11.20;66.50;;;;;;5040007;28;20110;-61
2021/04/21 06:14:05;;;;;;;42.20;10.18;;;11.20;66.50;;;;;;4992807;28;20086;-61
2021/04/21 06:16:32;;;;;;;38.90;9.90;;;11.20;66.70;;;;;;5025104;28;20025;-61
2021/04/21 06:19:02;;;;;;;41.00;10.65;;;11.20;66.70;;;;;;5022210;28;20362;-61
2021/04/21 06:21:32;;;;;;;26.55;8.88;;;11.20;66.70;;;;;;5007499;28;20044;-60
2021/04/21 06:23:57;;;;;;;26.48;9.20;;;11.10;66.70;;;;;;5039685;28;20365;-61
2021/04/21 06:26:28;;;;;;;41.83;9.48;;;11.10;66.80;;;;;;5027055;28;20036;-61
2021/04/21 06:29:07;;;;;;;31.52;8.80;;;11.20;66.80;;;;;;5008654;28;20095;-60
2021/04/21 06:31:42;;;;;;;34.70;10.00;;;11.10;66.80;;;;;;5041775;28;20611;-61
2021/04/21 06:34:08;;;;;;;44.40;10.00;;;11.10;66.90;;;;;;5038498;28;20028;-61
2021/04/21 06:36:38;;;;;;;47.65;11.20;;;11.20;67.00;;;;;;5037709;28;20041;-61
2021/04/21 06:39:04;;;;;;;39.20;10.27;;;11.10;67.00;;;;;;5040631;28;20518;-61
2021/04/21 06:41:29;;;;;;;27.17;9.63;;;11.10;67.10;;;;;;4992871;28;20091;-61
2021/04/21 06:43:56;;;;;;;52.38;10.73;;;11.10;67.10;;;;;;5023337;28;20029;-61
2021/04/21 06:46:22;;;;;;;42.47;9.98;;;11.10;67.20;;;;;;5036297;28;20056;-60
2021/04/21 06:48:54;;;;;;;43.72;10.75;;;11.10;67.20;;;;;;5023357;28;20049;-60
2021/04/21 06:51:20;;;;;;;44.17;11.60;;;11.10;67.20;;;;;;5022509;28;20375;-61
2021/04/21 06:53:49;;;;;;;44.42;10.18;;;11.20;67.30;;;;;;5038788;28;20043;-61
2021/04/21 06:56:14;;;;;;;55.35;11.65;;;11.20;67.30;;;;;;5037364;28;20087;-60
2021/04/21 06:58:40;;;;;;;46.33;10.73;;;11.20;67.20;;;;;;5020816;28;20037;-61
2021/04/21 07:01:13;;;;;;;47.55;11.73;;;11.20;67.40;;;;;;5041216;28;20078;-61
2021/04/21 07:03:39;;;;;;;34.58;11.23;;;11.20;67.30;;;;;;5022204;28;20947;-60
2021/04/21 07:06:05;;;;;;;42.83;11.63;;;11.20;67.30;;;;;;5006608;28;20037;-60
2021/04/21 07:08:36;;;;;;;52.65;11.27;;;11.20;67.40;;;;;;5007940;28;20037;-60
2021/04/21 07:11:02;;;;;;;48.75;10.57;;;11.20;67.50;;;;;;5039016;28;20480;-61
2021/04/21 07:13:31;;;;;;;47.55;10.82;;;11.20;67.50;;;;;;5017279;28;20056;-61
2021/04/21 07:16:01;;;;;;;48.83;10.73;;;11.20;67.60;;;;;;5016038;28;20037;-61
2021/04/21 07:18:28;;;;;;;35.78;10.13;;;11.20;67.70;;;;;;5021695;28;20013;-61
2021/04/21 07:20:59;;;;;;;37.50;10.48;;;11.20;67.70;;;;;;5020617;28;20017;-61
2021/04/21 07:23:25;;;;;;;60.63;13.43;;;11.20;67.70;;;;;;5003835;28;20037;-61
2021/04/21 07:25:50;;;;;;;44.88;10.73;;;11.30;67.90;;;;;;5020264;28;20044;-61
2021/04/21 07:28:17;;;;;;;57.97;12.15;;;11.30;68.00;;;;;;5018606;28;20060;-61
2021/04/21 07:30:42;;;;;;;55.30;12.20;;;11.20;68.00;;;;;;5017803;28;20476;-61
2021/04/21 07:33:08;;;;;;;61.83;13.10;;;11.20;68.20;;;;;;5022762;28;20048;-61
2021/04/21 07:35:34;;;;;;;98.53;14.95;;;11.30;68.30;;;;;;5013758;28;20124;-61
2021/04/21 07:38:01;;;;;;;61.72;13.05;;;11.30;68.10;;;;;;5037264;28;20047;-61
2021/04/21 07:40:34;;;;;;;59.28;12.18;;;11.00;68.00;;;;;;4994490;28;20722;-61
2021/04/21 07:43:10;;;;;;;63.38;11.77;;;11.30;68.30;;;;;;5003645;28;20100;-61
2021/04/21 07:45:46;;;;;;;75.20;11.57;;;11.30;68.20;;;;;;5010706;28;20033;-61
2021/04/21 07:48:33;;;;;;;67.05;11.20;;;11.30;68.20;;;;;;5002655;28;20029;-61
2021/04/21 07:51:20;;;;;;;47.42;11.70;;;11.30;68.30;;;;;;5035185;28;20028;-61
2021/04/21 07:53:47;;;;;;;49.55;11.30;;;11.40;68.40;;;;;;5004289;28;20029;-61
2021/04/21 07:56:13;;;;;;;54.92;11.20;;;11.30;68.20;;;;;;5020030;28;20067;-60
2021/04/21 07:58:38;;;;;;;45.92;10.60;;;11.30;68.10;;;;;;5036839;28;20034;-61
2021/04/21 08:01:04;;;;;;;37.15;10.90;;;11.30;68.20;;;;;;5003790;28;20032;-60
2021/04/21 08:03:29;;;;;;;55.05;10.85;;;11.40;68.20;;;;;;5040268;28;20025;-61
2021/04/21 08:05:55;;;;;;;54.05;11.32;;;11.40;68.30;;;;;;5037996;28;20056;-61
2021/04/21 08:08:27;;;;;;;49.47;10.85;;;11.40;68.30;;;;;;5002569;28;20042;-61
2021/04/21 08:10:53;;;;;;;58.05;11.23;;;11.40;68.50;;;;;;5018501;28;20115;-61
2021/04/21 08:13:43;;;;;;;70.70;12.50;;;11.40;68.60;;;;;;5019366;28;20536;-61
2021/04/21 08:16:25;;;;;;;61.92;11.00;;;11.40;68.80;;;;;;5037857;28;20612;-61
2021/04/21 08:18:51;;;;;;;62.05;11.25;;;11.40;68.80;;;;;;5038074;28;20484;-61
2021/04/21 08:21:36;;;;;;;59.70;12.75;;;11.50;68.90;;;;;;5016891;28;20033;-61
2021/04/21 08:24:06;;;;;;;60.70;13.50;;;11.50;68.60;;;;;;5020119;28;20537;-61
2021/04/21 08:26:32;;;;;;;66.38;12.93;;;11.50;68.80;;;;;;5002712;28;20287;-62
2021/04/21 08:28:58;;;;;;;52.17;12.75;;;11.50;69.00;;;;;;5021293;28;20023;-61
2021/04/21 08:31:25;;;;;;;59.83;12.73;;;11.50;69.00;;;;;;5020083;28;20065;-61
2021/04/21 08:33:50;;;;;;;45.65;10.10;;;11.50;69.00;;;;;;5021463;28;20033;-61
2021/04/21 08:36:16;;;;;;;68.18;13.77;;;11.50;68.70;;;;;;5002753;28;20033;-61
2021/04/21 08:38:41;;;;;;;83.28;12.70;;;11.50;69.00;;;;;;5017137;28;20128;-61
2021/04/21 08:41:07;;;;;;;63.08;12.40;;;11.60;69.10;;;;;;5035303;28;20029;-61
2021/04/21 08:43:36;;;;;;;81.78;14.25;;;11.50;69.00;;;;;;5003227;28;20044;-61
2021/04/21 08:46:01;;;;;;;45.00;10.85;;;11.60;69.20;;;;;;5004224;28;20665;-61
2021/04/21 08:48:27;;;;;;;46.38;10.93;;;11.60;69.10;;;;;;5017820;28;20068;-61
2021/04/21 08:50:53;;;;;;;55.65;10.88;;;11.60;69.20;;;;;;4988144;28;20376;-61
2021/04/21 08:53:18;;;;;;;45.70;10.73;;;11.60;69.10;;;;;;5005131;28;20033;-61
2021/04/21 08:55:44;;;;;;;56.70;11.30;;;11.70;69.10;;;;;;5001073;28;20464;-61
2021/04/21 08:58:09;;;;;;;37.15;10.70;;;11.60;69.00;;;;;;4999676;28;20062;-61
2021/04/21 09:00:35;;;;;;;41.85;10.25;;;11.70;69.10;;;;;;5013604;28;20063;-61
2021/04/21 09:03:01;;;;;;;44.97;10.75;;;11.70;69.20;;;;;;5039926;28;21715;-61
2021/04/21 09:05:27;;;;;;;56.15;11.20;;;11.70;69.30;;;;;;5036190;28;20025;-61
2021/04/21 09:07:52;;;;;;;170.73;23.30;;;11.80;69.40;;;;;;5018991;28;20120;-61
2021/04/21 09:10:18;;;;;;;82.22;13.63;;;11.80;69.70;;;;;;5015673;28;20036;-61
2021/04/21 09:12:44;;;;;;;79.45;12.60;;;11.80;69.40;;;;;;5017317;28;20086;-61
2021/04/21 09:15:11;;;;;;;49.05;12.32;;;11.90;69.50;;;;;;5019583;28;20062;-61
2021/04/21 09:17:50;;;;;;;60.20;11.05;;;11.80;69.30;;;;;;5037037;28;20087;-61
2021/04/21 09:20:18;;;;;;;69.85;11.50;;;11.90;69.40;;;;;;5017713;28;20492;-60
2021/04/21 09:23:14;;;;;;;50.95;10.85;;;11.90;69.40;;;;;;5034727;28;20026;-62
2021/04/21 09:26:00;;;;;;;50.83;11.47;;;12.00;69.60;;;;;;5017596;28;20045;-60
2021/04/21 09:28:26;;;;;;;43.53;11.38;;;12.00;69.60;;;;;;5033863;28;20040;-61
2021/04/21 09:30:56;;;;;;;71.90;11.93;;;12.00;69.70;;;;;;5005526;28;20029;-62
2021/04/21 09:33:22;;;;;;;58.10;10.63;;;12.10;69.70;;;;;;5017066;28;20083;-61
2021/04/21 09:35:48;;;;;;;48.15;10.82;;;12.10;69.50;;;;;;5020761;28;21343;-63
2021/04/21 09:38:15;;;;;;;55.83;13.80;;;12.20;69.30;;;;;;5019110;28;20037;-61
2021/04/21 09:40:43;;;;;;;62.13;11.60;;;12.20;69.50;;;;;;5003800;28;20056;-61
2021/04/21 09:43:11;;;;;;;50.85;11.30;;;12.20;70.00;;;;;;4996629;28;20033;-61
2021/04/21 09:45:41;;;;;;;50.08;11.45;;;12.30;69.20;;;;;;5031938;28;20029;-61
2021/04/21 09:48:11;;;;;;;59.63;11.30;;;12.30;69.60;;;;;;5013153;28;20065;-61
2021/04/21 09:50:38;;;;;;;65.07;11.93;;;12.30;69.20;;;;;;4998736;28;20028;-60
2021/04/21 09:53:17;;;;;;;57.70;11.98;;;12.40;69.10;;;;;;5028400;28;20069;-61
2021/04/21 09:55:56;;;;;;;71.32;12.65;;;12.40;69.00;;;;;;5011271;28;20036;-61
2021/04/21 09:58:42;;;;;;;77.95;13.18;;;12.40;69.00;;;;;;4999334;28;20045;-61
2021/04/21 10:01:30;;;;;;;43.83;11.35;;;12.50;69.00;;;;;;4995512;28;20039;-61
2021/04/21 10:04:10;;;;;;;62.58;10.90;;;12.50;68.80;;;;;;5014914;28;20021;-61
2021/04/21 10:06:57;;;;;;;75.05;13.35;;;12.60;68.50;;;;;;5016336;28;20076;-61
2021/04/21 10:09:29;;;;;;;66.70;12.27;;;12.60;68.40;;;;;;5034961;28;20119;-61
2021/04/21 10:12:21;;;;;;;74.93;12.20;;;12.60;68.00;;;;;;5038349;28;20017;-62
2021/04/21 10:15:02;;;;;;;73.35;12.20;;;12.60;68.10;;;;;;5036643;28;20028;-62
2021/04/21 10:17:29;;;;;;;71.78;13.07;;;12.70;68.30;;;;;;5004070;28;20037;-61
2021/04/21 10:19:54;;;;;;;58.58;12.23;;;12.70;68.40;;;;;;5013965;28;20044;-60
2021/04/21 10:22:20;;;;;;;62.65;11.60;;;12.70;68.30;;;;;;5004433;28;20041;-61
2021/04/21 10:24:46;;;;;;;60.08;12.02;;;12.80;68.20;;;;;;5004926;28;20485;-61
2021/04/21 10:27:13;;;;;;;69.13;12.25;;;12.80;68.00;;;;;;4990561;28;20037;-61
2021/04/21 10:29:39;;;;;;;63.38;12.43;;;12.80;68.00;;;;;;5005602;28;20034;-61
2021/04/21 10:32:04;;;;;;;66.88;10.75;;;12.90;68.10;;;;;;5018998;28;20063;-61
2021/04/21 10:34:30;;;;;;;69.70;12.15;;;13.00;68.10;;;;;;5000543;28;20535;-61
2021/04/21 10:36:56;;;;;;;65.75;11.75;;;13.00;67.90;;;;;;5003406;28;20045;-61
2021/04/21 10:39:32;;;;;;;48.60;11.57;;;13.10;67.80;;;;;;5015460;28;20029;-61
2021/04/21 10:42:17;;;;;;;59.80;11.00;;;13.20;67.50;;;;;;5020819;28;20021;-61
2021/04/21 10:44:44;;;;;;;70.50;12.52;;;13.20;67.50;;;;;;5020391;28;20017;-62
2021/04/21 10:47:14;;;;;;;68.60;12.45;;;13.30;67.20;;;;;;5017204;28;20504;-60
2021/04/21 10:50:04;;;;;;;75.57;12.90;;;13.30;67.10;;;;;;5024682;28;20547;-61
2021/04/21 10:52:29;;;;;;;65.82;12.00;;;13.40;67.00;;;;;;5035321;28;20128;-62
2021/04/21 10:55:08;;;;;;;87.45;11.57;;;13.40;66.70;;;;;;5031995;28;20083;-61
2021/04/21 10:57:41;;;;;;;65.68;11.73;;;13.50;66.60;;;;;;5006292;28;20017;-61
2021/04/21 11:00:17;;;;;;;52.00;10.50;;;13.60;66.50;;;;;;5038223;28;20045;-61
2021/04/21 11:02:55;;;;;;;45.53;9.68;;;13.60;65.80;;;;;;5036849;28;20021;-62
2021/04/21 11:05:37;;;;;;;43.47;9.88;;;13.70;64.70;;;;;;5031423;28;20117;-62
2021/04/21 11:08:16;;;;;;;49.38;9.27;;;13.80;63.70;;;;;;5036730;28;20021;-60
2021/04/21 11:10:54;;;;;;;43.80;9.02;;;13.80;63.20;;;;;;5014486;28;20060;-61
2021/04/21 11:13:23;;;;;;;39.25;8.68;;;13.90;62.40;;;;;;5018434;28;20120;-61
2021/04/21 11:15:54;;;;;;;85.05;12.70;;;14.00;62.40;;;;;;5033829;28;20160;-60
2021/04/21 11:18:26;;;;;;;37.50;8.27;;;14.10;62.50;;;;;;5038518;28;20401;-61
2021/04/21 11:21:10;;;;;;;30.10;9.07;;;14.10;61.40;;;;;;5018569;28;20025;-61
2021/04/21 11:24:00;;;;;;;41.05;8.55;;;14.20;61.40;;;;;;5030744;28;20037;-61
2021/04/21 11:26:30;;;;;;;29.52;8.93;;;14.30;60.80;;;;;;5036891;28;20029;-61
2021/04/21 11:29:08;;;;;;;43.33;8.43;;;14.40;60.90;;;;;;5038481;28;20025;-61
2021/04/21 11:31:54;;;;;;;51.00;9.52;;;14.50;60.70;;;;;;5016941;28;20037;-60
2021/04/21 11:34:29;;;;;;;30.17;7.30;;;14.50;60.30;;;;;;5033142;28;20025;-61
2021/04/21 11:37:10;;;;;;;37.80;7.47;;;14.60;59.20;;;;;;5039672;28;20178;-60
2021/04/21 11:39:45;;;;;;;44.13;7.60;;;14.70;58.80;;;;;;5016938;28;20371;-61
2021/04/21 11:42:32;;;;;;;38.10;7.60;;;14.80;59.10;;;;;;5038446;28;20025;-62
2021/04/21 11:45:19;;;;;;;30.52;8.05;;;14.90;58.80;;;;;;5012425;28;20037;-61
2021/04/21 11:47:49;;;;;;;48.30;8.25;;;15.00;57.20;;;;;;5036898;28;20045;-61
2021/04/21 11:50:17;;;;;;;36.45;7.97;;;15.10;57.70;;;;;;5016572;28;20215;-60
2021/04/21 11:52:52;;;;;;;40.72;8.32;;;15.20;58.00;;;;;;5036817;28;20111;-60
2021/04/21 11:55:29;;;;;;;41.80;7.17;;;15.30;57.00;;;;;;5022070;28;20086;-63
2021/04/21 11:58:00;;;;;;;39.72;8.07;;;15.40;56.80;;;;;;5039321;28;20389;-61
2021/04/21 12:00:31;;;;;;;43.53;7.93;;;15.50;57.30;;;;;;5020680;28;20050;-61
2021/04/21 12:02:57;;;;;;;52.05;8.27;;;15.50;57.00;;;;;;5005132;28;20047;-61
2021/04/21 12:05:41;;;;;;;33.28;7.55;;;15.60;56.90;;;;;;5040005;28;20087;-61
2021/04/21 12:08:06;;;;;;;44.78;7.45;;;15.70;56.30;;;;;;5018201;28;20130;-62
2021/04/21 12:10:33;;;;;;;34.22;7.70;;;15.80;55.50;;;;;;5005635;28;20488;-61
2021/04/21 12:13:22;;;;;;;43.38;6.35;;;15.90;54.90;;;;;;5003635;28;20025;-61
2021/04/21 12:15:49;;;;;;;40.13;6.70;;;16.00;54.20;;;;;;5014276;28;20045;-61
2021/04/21 12:18:38;;;;;;;43.15;8.43;;;16.00;54.00;;;;;;5033182;28;20027;-61
2021/04/21 12:21:26;;;;;;;75.82;9.27;;;16.10;54.50;;;;;;5020537;28;20221;-61
2021/04/21 12:24:00;;;;;;;52.45;8.93;;;16.10;55.70;;;;;;5033014;28;20079;-61
2021/04/21 12:26:29;;;;;;;56.17;8.50;;;16.20;55.40;;;;;;5035778;28;20021;-61
2021/04/21 12:29:10;;;;;;;82.90;9.82;;;16.30;55.70;;;;;;5013022;28;20104;-61
2021/04/21 12:31:36;;;;;;;53.78;7.97;;;16.30;55.20;;;;;;5019144;28;20352;-62
2021/04/21 12:34:06;;;;;;;46.83;8.85;;;16.40;54.30;;;;;;5017441;28;20037;-62
2021/04/21 12:36:35;;;;;;;59.00;8.98;;;16.40;53.80;;;;;;4995688;28;20031;-61
2021/04/21 12:39:04;;;;;;;70.22;9.50;;;16.60;53.50;;;;;;5018291;28;20127;-61
2021/04/21 12:41:30;;;;;;;52.22;7.72;;;16.60;53.50;;;;;;5038040;28;20041;-61
2021/04/21 12:43:55;;;;;;;59.40;8.63;;;16.70;53.60;;;;;;5016871;28;20055;-62
2021/04/21 12:46:22;;;;;;;61.13;7.70;;;16.60;53.20;;;;;;5035755;28;20144;-62
2021/04/21 12:48:49;;;;;;;69.22;8.70;;;16.80;51.80;;;;;;5003852;28;20124;-62
2021/04/21 12:51:17;;;;;;;67.90;8.52;;;16.90;52.00;;;;;;5006129;28;20037;-63
2021/04/21 12:53:42;;;;;;;59.83;8.27;;;17.00;52.60;;;;;;5033040;28;20412;-62
2021/04/21 12:56:08;;;;;;;76.88;10.05;;;17.00;52.00;;;;;;5021023;28;20024;-61
2021/04/21 12:58:36;;;;;;;64.85;8.85;;;17.10;52.40;;;;;;5012690;28;20075;-61
2021/04/21 13:01:14;;;;;;;54.00;8.20;;;17.10;52.20;;;;;;5013178;28;20037;-62